sensor_id;sensor_type;location;lat;lon;timestamp;P1;durP1;ratioP1;P2;durP2;ratioP2
19167;SDS011;9716;53.114;18.040;2023-07-13T00:01:15;4.90;;;2.80;;
19167;SDS011;9716;53.114;18.040;2023-07-13T00:03:45;3.42;;;3.03;;
19167;SDS011;9716;53.114;18.040;2023-07-13T00:06:13;5.03;;;3.42;;
19167;SDS011;9716;53.114;18.040;2023-07-13T00:08:41;4.22;;;3.08;;
19167;SDS011;9716;53.114;18.040;2023-07-13T00:11:10;7.03;;;3.85;;
19167;SDS011;9716;53.114;18.040;2023-07-13T00:13:39;5.20;;;2.92;;
19167;SDS011;9716;53.114;18.040;2023-07-13T00:16:09;5.03;;;2.97;;
19167;SDS011;9716;53.114;18.040;2023-07-13T00:18:42;4.22;;;2.88;;
19167;SDS011;9716;53.114;18.040;2023-07-13T00:21:10;3.97;;;3.10;;
19167;SDS011;9716;53.114;18.040;2023-07-13T00:23:40;6.55;;;3.60;;
19167;SDS011;9716;53.114;18.040;2023-07-13T00:26:10;4.18;;;3.20;;
19167;SDS011;9716;53.114;18.040;2023-07-13T00:28:39;6.07;;;3.03;;
19167;SDS011;9716;53.114;18.040;2023-07-13T00:31:09;3.80;;;3.38;;
19167;SDS011;9716;53.114;18.040;2023-07-13T00:33:37;6.55;;;3.22;;
19167;SDS011;9716;53.114;18.040;2023-07-13T00:36:08;4.70;;;3.15;;
19167;SDS011;9716;53.114;18.040;2023-07-13T00:38:38;8.85;;;3.50;;
19167;SDS011;9716;53.114;18.040;2023-07-13T00:41:06;8.13;;;3.72;;
19167;SDS011;9716;53.114;18.040;2023-07-13T00:43:34;5.00;;;3.30;;
19167;SDS011;9716;53.114;18.040;2023-07-13T00:46:20;5.45;;;3.63;;
19167;SDS011;9716;53.114;18.040;2023-07-13T00:48:51;12.00;;;3.70;;
19167;SDS011;9716;53.114;18.040;2023-07-13T00:51:27;4.88;;;2.92;;
19167;SDS011;9716;53.114;18.040;2023-07-13T00:53:59;6.15;;;3.47;;
19167;SDS011;9716;53.114;18.040;2023-07-13T00:56:32;4.10;;;3.13;;
19167;SDS011;9716;53.114;18.040;2023-07-13T00:59:02;8.73;;;3.42;;
19167;SDS011;9716;53.114;18.040;2023-07-13T01:01:33;3.88;;;2.85;;
19167;SDS011;9716;53.114;18.040;2023-07-13T01:04:19;5.97;;;4.00;;
19167;SDS011;9716;53.114;18.040;2023-07-13T01:06:48;7.53;;;4.20;;
19167;SDS011;9716;53.114;18.040;2023-07-13T01:09:17;5.13;;;3.35;;
19167;SDS011;9716;53.114;18.040;2023-07-13T01:11:47;5.63;;;3.10;;
19167;SDS011;9716;53.114;18.040;2023-07-13T01:14:16;6.60;;;3.67;;
19167;SDS011;9716;53.114;18.040;2023-07-13T01:16:44;5.47;;;3.55;;
19167;SDS011;9716;53.114;18.040;2023-07-13T01:19:18;8.35;;;3.75;;
19167;SDS011;9716;53.114;18.040;2023-07-13T01:22:05;4.35;;;3.00;;
19167;SDS011;9716;53.114;18.040;2023-07-13T01:24:36;8.23;;;3.58;;
19167;SDS011;9716;53.114;18.040;2023-07-13T01:27:06;6.13;;;3.20;;
19167;SDS011;9716;53.114;18.040;2023-07-13T01:29:37;6.68;;;3.13;;
19167;SDS011;9716;53.114;18.040;2023-07-13T01:32:08;4.55;;;3.17;;
19167;SDS011;9716;53.114;18.040;2023-07-13T01:34:38;4.18;;;3.00;;
19167;SDS011;9716;53.114;18.040;2023-07-13T01:37:11;6.35;;;3.13;;
19167;SDS011;9716;53.114;18.040;2023-07-13T01:39:40;7.05;;;3.10;;
19167;SDS011;9716;53.114;18.040;2023-07-13T01:42:08;8.43;;;3.33;;
19167;SDS011;9716;53.114;18.040;2023-07-13T01:44:37;5.53;;;3.58;;
19167;SDS011;9716;53.114;18.040;2023-07-13T01:47:05;9.05;;;3.83;;
19167;SDS011;9716;53.114;18.040;2023-07-13T01:49:34;5.15;;;3.95;;
19167;SDS011;9716;53.114;18.040;2023-07-13T01:52:04;12.13;;;4.13;;
19167;SDS011;9716;53.114;18.040;2023-07-13T01:54:34;6.93;;;4.00;;
19167;SDS011;9716;53.114;18.040;2023-07-13T01:57:03;5.82;;;3.53;;
19167;SDS011;9716;53.114;18.040;2023-07-13T01:59:31;5.55;;;3.55;;
19167;SDS011;9716;53.114;18.040;2023-07-13T02:02:00;6.07;;;3.38;;
19167;SDS011;9716;53.114;18.040;2023-07-13T02:04:29;6.57;;;3.53;;
19167;SDS011;9716;53.114;18.040;2023-07-13T02:06:57;9.50;;;4.22;;
19167;SDS011;9716;53.114;18.040;2023-07-13T02:09:26;7.50;;;3.97;;
19167;SDS011;9716;53.114;18.040;2023-07-13T02:11:56;9.55;;;4.00;;
19167;SDS011;9716;53.114;18.040;2023-07-13T02:14:24;4.15;;;3.30;;
19167;SDS011;9716;53.114;18.040;2023-07-13T02:16:54;7.55;;;4.20;;
19167;SDS011;9716;53.114;18.040;2023-07-13T02:19:22;6.30;;;3.92;;
19167;SDS011;9716;53.114;18.040;2023-07-13T02:21:51;5.60;;;4.03;;
19167;SDS011;9716;53.114;18.040;2023-07-13T02:24:20;7.63;;;3.53;;
19167;SDS011;9716;53.114;18.040;2023-07-13T02:26:48;6.20;;;3.33;;
19167;SDS011;9716;53.114;18.040;2023-07-13T02:29:18;7.63;;;4.03;;
19167;SDS011;9716;53.114;18.040;2023-07-13T02:31:46;5.63;;;3.60;;
19167;SDS011;9716;53.114;18.040;2023-07-13T02:34:15;7.32;;;4.13;;
19167;SDS011;9716;53.114;18.040;2023-07-13T02:36:43;7.28;;;3.97;;
19167;SDS011;9716;53.114;18.040;2023-07-13T02:39:14;6.28;;;3.35;;
19167;SDS011;9716;53.114;18.040;2023-07-13T02:41:43;6.75;;;3.88;;
19167;SDS011;9716;53.114;18.040;2023-07-13T02:44:12;7.45;;;3.65;;
19167;SDS011;9716;53.114;18.040;2023-07-13T02:46:42;4.72;;;3.35;;
19167;SDS011;9716;53.114;18.040;2023-07-13T02:49:10;7.38;;;4.32;;
19167;SDS011;9716;53.114;18.040;2023-07-13T02:51:39;6.40;;;4.15;;
19167;SDS011;9716;53.114;18.040;2023-07-13T02:54:08;9.90;;;3.88;;
19167;SDS011;9716;53.114;18.040;2023-07-13T02:56:38;4.63;;;3.50;;
19167;SDS011;9716;53.114;18.040;2023-07-13T02:59:07;8.68;;;4.43;;
19167;SDS011;9716;53.114;18.040;2023-07-13T03:01:36;6.55;;;4.30;;
19167;SDS011;9716;53.114;18.040;2023-07-13T03:04:06;9.48;;;4.13;;
19167;SDS011;9716;53.114;18.040;2023-07-13T03:06:34;6.65;;;3.80;;
19167;SDS011;9716;53.114;18.040;2023-07-13T03:09:03;6.63;;;3.78;;
19167;SDS011;9716;53.114;18.040;2023-07-13T03:11:32;9.25;;;4.85;;
19167;SDS011;9716;53.114;18.040;2023-07-13T03:14:00;6.47;;;3.80;;
19167;SDS011;9716;53.114;18.040;2023-07-13T03:16:29;5.78;;;3.65;;
19167;SDS011;9716;53.114;18.040;2023-07-13T03:18:58;8.10;;;4.15;;
19167;SDS011;9716;53.114;18.040;2023-07-13T03:21:28;9.13;;;3.42;;
19167;SDS011;9716;53.114;18.040;2023-07-13T03:23:56;7.90;;;4.45;;
19167;SDS011;9716;53.114;18.040;2023-07-13T03:26:25;5.30;;;3.75;;
19167;SDS011;9716;53.114;18.040;2023-07-13T03:28:53;6.72;;;4.10;;
19167;SDS011;9716;53.114;18.040;2023-07-13T03:31:22;5.40;;;3.85;;
19167;SDS011;9716;53.114;18.040;2023-07-13T03:33:53;4.65;;;3.67;;
19167;SDS011;9716;53.114;18.040;2023-07-13T03:36:22;7.45;;;4.38;;
19167;SDS011;9716;53.114;18.040;2023-07-13T03:38:54;7.63;;;4.68;;
19167;SDS011;9716;53.114;18.040;2023-07-13T03:41:24;6.10;;;4.25;;
19167;SDS011;9716;53.114;18.040;2023-07-13T03:43:53;9.23;;;4.57;;
19167;SDS011;9716;53.114;18.040;2023-07-13T03:46:22;7.80;;;4.72;;
19167;SDS011;9716;53.114;18.040;2023-07-13T03:48:50;5.00;;;3.90;;
19167;SDS011;9716;53.114;18.040;2023-07-13T03:51:22;5.85;;;4.20;;
19167;SDS011;9716;53.114;18.040;2023-07-13T03:53:51;7.82;;;4.80;;
19167;SDS011;9716;53.114;18.040;2023-07-13T03:56:21;8.63;;;4.25;;
19167;SDS011;9716;53.114;18.040;2023-07-13T03:58:50;6.75;;;4.30;;
19167;SDS011;9716;53.114;18.040;2023-07-13T04:01:19;7.25;;;4.40;;
19167;SDS011;9716;53.114;18.040;2023-07-13T04:03:49;7.38;;;4.22;;
19167;SDS011;9716;53.114;18.040;2023-07-13T04:06:19;6.85;;;4.07;;
19167;SDS011;9716;53.114;18.040;2023-07-13T04:08:49;7.90;;;4.47;;
19167;SDS011;9716;53.114;18.040;2023-07-13T04:11:21;7.18;;;4.10;;
19167;SDS011;9716;53.114;18.040;2023-07-13T04:13:51;7.15;;;4.40;;
19167;SDS011;9716;53.114;18.040;2023-07-13T04:16:20;5.60;;;4.07;;
19167;SDS011;9716;53.114;18.040;2023-07-13T04:18:49;6.70;;;4.00;;
19167;SDS011;9716;53.114;18.040;2023-07-13T04:21:36;6.10;;;4.32;;
19167;SDS011;9716;53.114;18.040;2023-07-13T04:24:05;5.47;;;3.97;;
19167;SDS011;9716;53.114;18.040;2023-07-13T04:26:35;10.23;;;4.65;;
19167;SDS011;9716;53.114;18.040;2023-07-13T04:29:05;6.93;;;4.28;;
19167;SDS011;9716;53.114;18.040;2023-07-13T04:31:34;9.52;;;3.67;;
19167;SDS011;9716;53.114;18.040;2023-07-13T04:34:03;6.00;;;3.75;;
19167;SDS011;9716;53.114;18.040;2023-07-13T04:36:31;9.60;;;4.40;;
19167;SDS011;9716;53.114;18.040;2023-07-13T04:39:00;8.70;;;4.38;;
19167;SDS011;9716;53.114;18.040;2023-07-13T04:41:28;7.30;;;4.10;;
19167;SDS011;9716;53.114;18.040;2023-07-13T04:43:58;6.97;;;3.80;;
19167;SDS011;9716;53.114;18.040;2023-07-13T04:46:27;8.25;;;4.13;;
19167;SDS011;9716;53.114;18.040;2023-07-13T04:48:55;7.90;;;4.63;;
19167;SDS011;9716;53.114;18.040;2023-07-13T04:51:25;4.57;;;3.47;;
19167;SDS011;9716;53.114;18.040;2023-07-13T04:53:54;10.23;;;3.83;;
19167;SDS011;9716;53.114;18.040;2023-07-13T04:56:26;7.88;;;3.92;;
19167;SDS011;9716;53.114;18.040;2023-07-13T04:58:55;8.88;;;3.88;;
19167;SDS011;9716;53.114;18.040;2023-07-13T05:01:26;6.15;;;3.65;;
19167;SDS011;9716;53.114;18.040;2023-07-13T05:03:55;6.43;;;3.53;;
19167;SDS011;9716;53.114;18.040;2023-07-13T05:06:26;8.98;;;4.03;;
19167;SDS011;9716;53.114;18.040;2023-07-13T05:08:55;6.20;;;3.67;;
19167;SDS011;9716;53.114;18.040;2023-07-13T05:11:23;3.88;;;3.20;;
19167;SDS011;9716;53.114;18.040;2023-07-13T05:13:52;4.70;;;2.90;;
19167;SDS011;9716;53.114;18.040;2023-07-13T05:16:20;9.25;;;3.28;;
19167;SDS011;9716;53.114;18.040;2023-07-13T05:18:50;4.20;;;3.10;;
19167;SDS011;9716;53.114;18.040;2023-07-13T05:21:19;6.03;;;3.17;;
19167;SDS011;9716;53.114;18.040;2023-07-13T05:23:48;5.40;;;2.90;;
19167;SDS011;9716;53.114;18.040;2023-07-13T05:26:16;3.88;;;2.40;;
19167;SDS011;9716;53.114;18.040;2023-07-13T05:28:44;10.73;;;2.90;;
19167;SDS011;9716;53.114;18.040;2023-07-13T05:31:12;3.75;;;2.63;;
19167;SDS011;9716;53.114;18.040;2023-07-13T05:33:42;3.63;;;2.53;;
19167;SDS011;9716;53.114;18.040;2023-07-13T05:36:12;3.42;;;2.33;;
19167;SDS011;9716;53.114;18.040;2023-07-13T05:38:40;4.10;;;2.45;;
19167;SDS011;9716;53.114;18.040;2023-07-13T05:41:08;5.55;;;2.65;;
19167;SDS011;9716;53.114;18.040;2023-07-13T05:43:38;5.50;;;2.63;;
19167;SDS011;9716;53.114;18.040;2023-07-13T05:46:06;8.65;;;2.30;;
19167;SDS011;9716;53.114;18.040;2023-07-13T05:48:35;4.90;;;2.63;;
19167;SDS011;9716;53.114;18.040;2023-07-13T05:51:04;3.47;;;2.38;;
19167;SDS011;9716;53.114;18.040;2023-07-13T05:53:34;6.60;;;2.63;;
19167;SDS011;9716;53.114;18.040;2023-07-13T05:56:02;5.70;;;2.42;;
19167;SDS011;9716;53.114;18.040;2023-07-13T05:58:31;5.20;;;2.42;;
19167;SDS011;9716;53.114;18.040;2023-07-13T06:01:00;6.50;;;1.63;;
19167;SDS011;9716;53.114;18.040;2023-07-13T06:03:31;6.55;;;2.15;;
19167;SDS011;9716;53.114;18.040;2023-07-13T06:06:00;2.70;;;1.83;;
19167;SDS011;9716;53.114;18.040;2023-07-13T06:08:29;7.18;;;2.22;;
19167;SDS011;9716;53.114;18.040;2023-07-13T06:11:03;3.25;;;1.70;;
19167;SDS011;9716;53.114;18.040;2023-07-13T06:13:32;3.47;;;1.88;;
19167;SDS011;9716;53.114;18.040;2023-07-13T06:16:01;7.78;;;1.90;;
19167;SDS011;9716;53.114;18.040;2023-07-13T06:18:32;4.75;;;2.13;;
19167;SDS011;9716;53.114;18.040;2023-07-13T06:21:05;9.63;;;1.92;;
19167;SDS011;9716;53.114;18.040;2023-07-13T06:23:34;4.90;;;2.20;;
19167;SDS011;9716;53.114;18.040;2023-07-13T06:26:04;11.35;;;2.00;;
19167;SDS011;9716;53.114;18.040;2023-07-13T06:28:34;4.28;;;1.90;;
19167;SDS011;9716;53.114;18.040;2023-07-13T06:31:04;1.92;;;1.40;;
19167;SDS011;9716;53.114;18.040;2023-07-13T06:33:35;7.10;;;2.38;;
19167;SDS011;9716;53.114;18.040;2023-07-13T06:36:04;3.22;;;1.63;;
19167;SDS011;9716;53.114;18.040;2023-07-13T06:38:34;4.05;;;1.75;;
19167;SDS011;9716;53.114;18.040;2023-07-13T06:41:05;1.67;;;1.52;;
19167;SDS011;9716;53.114;18.040;2023-07-13T06:43:34;4.18;;;1.92;;
19167;SDS011;9716;53.114;18.040;2023-07-13T06:46:02;8.75;;;1.63;;
19167;SDS011;9716;53.114;18.040;2023-07-13T06:48:31;2.92;;;1.70;;
19167;SDS011;9716;53.114;18.040;2023-07-13T06:50:59;6.72;;;1.35;;
19167;SDS011;9716;53.114;18.040;2023-07-13T06:53:29;4.07;;;1.63;;
19167;SDS011;9716;53.114;18.040;2023-07-13T06:55:58;5.43;;;2.00;;
19167;SDS011;9716;53.114;18.040;2023-07-13T06:58:28;3.65;;;1.58;;
19167;SDS011;9716;53.114;18.040;2023-07-13T07:00:56;1.35;;;1.25;;
19167;SDS011;9716;53.114;18.040;2023-07-13T07:03:25;2.67;;;2.13;;
19167;SDS011;9716;53.114;18.040;2023-07-13T07:05:59;1.35;;;1.10;;
19167;SDS011;9716;53.114;18.040;2023-07-13T07:08:29;1.88;;;1.45;;
19167;SDS011;9716;53.114;18.040;2023-07-13T07:10:57;2.22;;;1.73;;
19167;SDS011;9716;53.114;18.040;2023-07-13T07:13:27;4.57;;;1.45;;
19167;SDS011;9716;53.114;18.040;2023-07-13T07:15:56;4.43;;;1.60;;
19167;SDS011;9716;53.114;18.040;2023-07-13T07:18:27;1.52;;;1.40;;
19167;SDS011;9716;53.114;18.040;2023-07-13T07:20:55;9.05;;;2.15;;
19167;SDS011;9716;53.114;18.040;2023-07-13T07:23:24;2.15;;;1.70;;
19167;SDS011;9716;53.114;18.040;2023-07-13T07:25:52;6.07;;;1.77;;
19167;SDS011;9716;53.114;18.040;2023-07-13T07:28:21;3.25;;;1.83;;
19167;SDS011;9716;53.114;18.040;2023-07-13T07:30:54;6.65;;;1.33;;
19167;SDS011;9716;53.114;18.040;2023-07-13T07:33:27;3.63;;;1.52;;
19167;SDS011;9716;53.114;18.040;2023-07-13T07:35:55;5.18;;;1.75;;
19167;SDS011;9716;53.114;18.040;2023-07-13T07:38:27;1.10;;;1.00;;
19167;SDS011;9716;53.114;18.040;2023-07-13T07:40:55;1.65;;;1.30;;
19167;SDS011;9716;53.114;18.040;2023-07-13T07:43:27;2.50;;;1.67;;
19167;SDS011;9716;53.114;18.040;2023-07-13T07:45:56;3.30;;;1.58;;
19167;SDS011;9716;53.114;18.040;2023-07-13T07:48:29;4.88;;;1.33;;
19167;SDS011;9716;53.114;18.040;2023-07-13T07:50:57;2.13;;;1.63;;
19167;SDS011;9716;53.114;18.040;2023-07-13T07:53:26;2.90;;;1.73;;
19167;SDS011;9716;53.114;18.040;2023-07-13T07:55:54;3.90;;;1.25;;
19167;SDS011;9716;53.114;18.040;2023-07-13T07:58:43;4.28;;;1.52;;
19167;SDS011;9716;53.114;18.040;2023-07-13T08:01:15;2.83;;;1.80;;
19167;SDS011;9716;53.114;18.040;2023-07-13T08:03:47;5.68;;;1.65;;
19167;SDS011;9716;53.114;18.040;2023-07-13T08:06:18;2.92;;;1.58;;
19167;SDS011;9716;53.114;18.040;2023-07-13T08:08:51;7.43;;;2.05;;
19167;SDS011;9716;53.114;18.040;2023-07-13T08:11:21;1.80;;;1.52;;
19167;SDS011;9716;53.114;18.040;2023-07-13T08:13:53;3.15;;;1.55;;
19167;SDS011;9716;53.114;18.040;2023-07-13T08:16:23;4.10;;;1.48;;
19167;SDS011;9716;53.114;18.040;2023-07-13T08:18:52;8.65;;;1.70;;
19167;SDS011;9716;53.114;18.040;2023-07-13T08:21:21;2.92;;;1.50;;
19167;SDS011;9716;53.114;18.040;2023-07-13T08:23:50;3.13;;;1.63;;
19167;SDS011;9716;53.114;18.040;2023-07-13T08:26:18;3.95;;;1.40;;
19167;SDS011;9716;53.114;18.040;2023-07-13T08:28:47;5.03;;;1.48;;
19167;SDS011;9716;53.114;18.040;2023-07-13T08:31:15;5.50;;;1.58;;
19167;SDS011;9716;53.114;18.040;2023-07-13T08:33:45;1.27;;;1.17;;
19167;SDS011;9716;53.114;18.040;2023-07-13T08:36:13;1.70;;;1.08;;
19167;SDS011;9716;53.114;18.040;2023-07-13T08:38:42;2.92;;;1.50;;
19167;SDS011;9716;53.114;18.040;2023-07-13T08:41:11;3.22;;;1.13;;
19167;SDS011;9716;53.114;18.040;2023-07-13T08:43:41;4.80;;;1.40;;
19167;SDS011;9716;53.114;18.040;2023-07-13T08:46:13;2.30;;;1.35;;
19167;SDS011;9716;53.114;18.040;2023-07-13T08:48:47;3.13;;;1.02;;
19167;SDS011;9716;53.114;18.040;2023-07-13T08:54:19;5.18;;;1.80;;
19167;SDS011;9716;53.114;18.040;2023-07-13T08:56:50;3.17;;;1.10;;
19167;SDS011;9716;53.114;18.040;2023-07-13T08:59:22;4.22;;;1.23;;
19167;SDS011;9716;53.114;18.040;2023-07-13T09:01:57;1.80;;;1.10;;
19167;SDS011;9716;53.114;18.040;2023-07-13T09:04:35;1.67;;;1.10;;
19167;SDS011;9716;53.114;18.040;2023-07-13T09:07:11;1.50;;;1.40;;
19167;SDS011;9716;53.114;18.040;2023-07-13T09:09:52;1.42;;;1.08;;
19167;SDS011;9716;53.114;18.040;2023-07-13T09:12:31;2.70;;;1.13;;
19167;SDS011;9716;53.114;18.040;2023-07-13T09:15:15;2.75;;;1.58;;
19167;SDS011;9716;53.114;18.040;2023-07-13T09:17:52;4.05;;;1.23;;
19167;SDS011;9716;53.114;18.040;2023-07-13T09:20:26;3.85;;;1.30;;
19167;SDS011;9716;53.114;18.040;2023-07-13T09:22:59;1.38;;;1.25;;
19167;SDS011;9716;53.114;18.040;2023-07-13T09:25:31;2.72;;;1.33;;
19167;SDS011;9716;53.114;18.040;2023-07-13T09:28:02;1.60;;;0.88;;
19167;SDS011;9716;53.114;18.040;2023-07-13T09:30:38;2.95;;;1.27;;
19167;SDS011;9716;53.114;18.040;2023-07-13T09:33:20;3.42;;;1.40;;
19167;SDS011;9716;53.114;18.040;2023-07-13T09:35:51;4.43;;;1.73;;
19167;SDS011;9716;53.114;18.040;2023-07-13T09:38:19;3.25;;;1.30;;
19167;SDS011;9716;53.114;18.040;2023-07-13T09:40:58;2.00;;;1.40;;
19167;SDS011;9716;53.114;18.040;2023-07-13T09:43:32;2.45;;;1.40;;
19167;SDS011;9716;53.114;18.040;2023-07-13T09:46:01;4.65;;;1.40;;
19167;SDS011;9716;53.114;18.040;2023-07-13T09:48:33;2.95;;;1.33;;
19167;SDS011;9716;53.114;18.040;2023-07-13T09:51:12;4.20;;;1.60;;
19167;SDS011;9716;53.114;18.040;2023-07-13T09:53:42;4.28;;;1.30;;
19167;SDS011;9716;53.114;18.040;2023-07-13T09:56:20;7.22;;;1.13;;
19167;SDS011;9716;53.114;18.040;2023-07-13T09:58:49;2.92;;;1.20;;
19167;SDS011;9716;53.114;18.040;2023-07-13T10:01:30;1.13;;;1.00;;
19167;SDS011;9716;53.114;18.040;2023-07-13T10:04:00;4.07;;;1.20;;
19167;SDS011;9716;53.114;18.040;2023-07-13T10:06:31;2.58;;;1.00;;
19167;SDS011;9716;53.114;18.040;2023-07-13T10:09:00;1.05;;;1.02;;
19167;SDS011;9716;53.114;18.040;2023-07-13T10:11:30;2.78;;;1.13;;
19167;SDS011;9716;53.114;18.040;2023-07-13T10:14:00;2.03;;;1.38;;
19167;SDS011;9716;53.114;18.040;2023-07-13T10:16:31;1.73;;;1.23;;
19167;SDS011;9716;53.114;18.040;2023-07-13T10:19:05;1.20;;;0.95;;
19167;SDS011;9716;53.114;18.040;2023-07-13T10:21:43;2.00;;;1.13;;
19167;SDS011;9716;53.114;18.040;2023-07-13T10:24:20;1.63;;;1.10;;
19167;SDS011;9716;53.114;18.040;2023-07-13T10:26:52;1.38;;;1.25;;
19167;SDS011;9716;53.114;18.040;2023-07-13T10:29:32;1.33;;;1.23;;
19167;SDS011;9716;53.114;18.040;2023-07-13T10:32:07;8.15;;;1.52;;
19167;SDS011;9716;53.114;18.040;2023-07-13T10:34:39;1.45;;;1.20;;
19167;SDS011;9716;53.114;18.040;2023-07-13T10:37:09;2.53;;;1.52;;
19167;SDS011;9716;53.114;18.040;2023-07-13T10:39:47;3.38;;;1.73;;
19167;SDS011;9716;53.114;18.040;2023-07-13T10:42:21;1.33;;;1.13;;
19167;SDS011;9716;53.114;18.040;2023-07-13T10:44:55;1.98;;;1.33;;
19167;SDS011;9716;53.114;18.040;2023-07-13T10:47:24;1.17;;;1.08;;
19167;SDS011;9716;53.114;18.040;2023-07-13T10:49:55;1.38;;;1.17;;
19167;SDS011;9716;53.114;18.040;2023-07-13T10:52:42;1.27;;;1.17;;
19167;SDS011;9716;53.114;18.040;2023-07-13T10:55:32;1.27;;;1.17;;
19167;SDS011;9716;53.114;18.040;2023-07-13T10:58:14;1.58;;;1.13;;
19167;SDS011;9716;53.114;18.040;2023-07-13T11:00:48;2.13;;;1.85;;
19167;SDS011;9716;53.114;18.040;2023-07-13T11:03:20;6.45;;;1.35;;
19167;SDS011;9716;53.114;18.040;2023-07-13T11:05:50;2.97;;;1.38;;
19167;SDS011;9716;53.114;18.040;2023-07-13T11:08:33;2.35;;;1.17;;
19167;SDS011;9716;53.114;18.040;2023-07-13T11:14:28;1.38;;;1.17;;
19167;SDS011;9716;53.114;18.040;2023-07-13T11:20:18;3.65;;;1.30;;
19167;SDS011;9716;53.114;18.040;2023-07-13T11:23:07;9.57;;;1.45;;
19167;SDS011;9716;53.114;18.040;2023-07-13T11:25:46;5.93;;;1.58;;
19167;SDS011;9716;53.114;18.040;2023-07-13T11:28:16;4.55;;;1.50;;
19167;SDS011;9716;53.114;18.040;2023-07-13T11:30:49;1.67;;;1.30;;
19167;SDS011;9716;53.114;18.040;2023-07-13T11:33:49;16.17;;;2.00;;
19167;SDS011;9716;53.114;18.040;2023-07-13T11:36:20;2.83;;;1.30;;
19167;SDS011;9716;53.114;18.040;2023-07-13T11:38:55;2.55;;;1.30;;
19167;SDS011;9716;53.114;18.040;2023-07-13T11:41:31;4.13;;;1.60;;
19167;SDS011;9716;53.114;18.040;2023-07-13T11:44:07;2.00;;;1.40;;
19167;SDS011;9716;53.114;18.040;2023-07-13T11:46:43;2.00;;;1.45;;
19167;SDS011;9716;53.114;18.040;2023-07-13T11:49:17;2.40;;;1.65;;
19167;SDS011;9716;53.114;18.040;2023-07-13T11:51:50;3.88;;;1.73;;
19167;SDS011;9716;53.114;18.040;2023-07-13T11:54:25;3.45;;;1.23;;
19167;SDS011;9716;53.114;18.040;2023-07-13T11:56:58;2.17;;;1.20;;
19167;SDS011;9716;53.114;18.040;2023-07-13T11:59:33;1.27;;;1.13;;
19167;SDS011;9716;53.114;18.040;2023-07-13T12:02:25;5.18;;;1.88;;
19167;SDS011;9716;53.114;18.040;2023-07-13T12:04:56;4.82;;;1.55;;
19167;SDS011;9716;53.114;18.040;2023-07-13T12:07:28;2.55;;;1.10;;
19167;SDS011;9716;53.114;18.040;2023-07-13T12:10:00;3.72;;;1.80;;
19167;SDS011;9716;53.114;18.040;2023-07-13T12:12:31;3.97;;;1.73;;
19167;SDS011;9716;53.114;18.040;2023-07-13T12:14:59;4.82;;;1.63;;
19167;SDS011;9716;53.114;18.040;2023-07-13T12:17:27;1.17;;;1.02;;
19167;SDS011;9716;53.114;18.040;2023-07-13T12:19:56;2.47;;;1.40;;
19167;SDS011;9716;53.114;18.040;2023-07-13T12:22:25;1.40;;;1.23;;
19167;SDS011;9716;53.114;18.040;2023-07-13T12:24:55;1.42;;;1.33;;
19167;SDS011;9716;53.114;18.040;2023-07-13T12:27:25;1.92;;;1.20;;
19167;SDS011;9716;53.114;18.040;2023-07-13T12:29:59;1.30;;;1.13;;
19167;SDS011;9716;53.114;18.040;2023-07-13T12:32:29;1.30;;;1.20;;
19167;SDS011;9716;53.114;18.040;2023-07-13T12:35:06;2.03;;;1.30;;
19167;SDS011;9716;53.114;18.040;2023-07-13T12:37:42;2.00;;;1.27;;
19167;SDS011;9716;53.114;18.040;2023-07-13T12:40:13;2.55;;;1.45;;
19167;SDS011;9716;53.114;18.040;2023-07-13T12:42:43;4.28;;;1.55;;
19167;SDS011;9716;53.114;18.040;2023-07-13T12:45:18;2.28;;;1.30;;
19167;SDS011;9716;53.114;18.040;2023-07-13T12:47:52;1.65;;;1.42;;
19167;SDS011;9716;53.114;18.040;2023-07-13T12:50:23;2.35;;;1.25;;
19167;SDS011;9716;53.114;18.040;2023-07-13T12:52:59;6.32;;;1.33;;
19167;SDS011;9716;53.114;18.040;2023-07-13T12:55:30;2.53;;;1.33;;
19167;SDS011;9716;53.114;18.040;2023-07-13T12:58:03;4.15;;;1.58;;
19167;SDS011;9716;53.114;18.040;2023-07-13T13:00:35;1.83;;;1.40;;
19167;SDS011;9716;53.114;18.040;2023-07-13T13:03:06;2.53;;;1.63;;
19167;SDS011;9716;53.114;18.040;2023-07-13T13:05:59;1.70;;;1.33;;
19167;SDS011;9716;53.114;18.040;2023-07-13T13:08:30;2.15;;;1.45;;
19167;SDS011;9716;53.114;18.040;2023-07-13T13:11:00;1.85;;;1.35;;
19167;SDS011;9716;53.114;18.040;2023-07-13T13:13:29;3.33;;;1.33;;
19167;SDS011;9716;53.114;18.040;2023-07-13T13:16:02;6.45;;;1.48;;
19167;SDS011;9716;53.114;18.040;2023-07-13T13:18:37;1.13;;;1.00;;
19167;SDS011;9716;53.114;18.040;2023-07-13T13:21:05;2.60;;;1.58;;
19167;SDS011;9716;53.114;18.040;2023-07-13T13:23:35;6.35;;;1.88;;
19167;SDS011;9716;53.114;18.040;2023-07-13T13:26:05;3.47;;;1.55;;
19167;SDS011;9716;53.114;18.040;2023-07-13T13:28:38;3.92;;;1.55;;
19167;SDS011;9716;53.114;18.040;2023-07-13T13:31:09;2.95;;;1.45;;
19167;SDS011;9716;53.114;18.040;2023-07-13T13:33:40;1.55;;;1.42;;
19167;SDS011;9716;53.114;18.040;2023-07-13T13:36:13;2.92;;;1.48;;
19167;SDS011;9716;53.114;18.040;2023-07-13T13:38:43;1.55;;;1.33;;
19167;SDS011;9716;53.114;18.040;2023-07-13T13:41:13;4.68;;;1.65;;
19167;SDS011;9716;53.114;18.040;2023-07-13T13:43:42;2.60;;;1.58;;
19167;SDS011;9716;53.114;18.040;2023-07-13T13:46:15;2.20;;;1.40;;
19167;SDS011;9716;53.114;18.040;2023-07-13T13:48:46;3.70;;;1.80;;
19167;SDS011;9716;53.114;18.040;2023-07-13T13:51:15;7.95;;;1.65;;
19167;SDS011;9716;53.114;18.040;2023-07-13T13:53:46;4.07;;;1.75;;
19167;SDS011;9716;53.114;18.040;2023-07-13T13:56:15;3.17;;;1.67;;
19167;SDS011;9716;53.114;18.040;2023-07-13T13:58:46;4.45;;;1.33;;
19167;SDS011;9716;53.114;18.040;2023-07-13T14:01:17;3.40;;;1.50;;
19167;SDS011;9716;53.114;18.040;2023-07-13T14:03:49;2.33;;;1.25;;
19167;SDS011;9716;53.114;18.040;2023-07-13T14:06:19;3.78;;;1.45;;
19167;SDS011;9716;53.114;18.040;2023-07-13T14:08:48;1.58;;;1.35;;
19167;SDS011;9716;53.114;18.040;2023-07-13T14:11:18;2.15;;;1.50;;
19167;SDS011;9716;53.114;18.040;2023-07-13T14:13:49;2.55;;;1.50;;
19167;SDS011;9716;53.114;18.040;2023-07-13T14:16:22;4.40;;;1.65;;
19167;SDS011;9716;53.114;18.040;2023-07-13T14:18:56;1.55;;;1.45;;
19167;SDS011;9716;53.114;18.040;2023-07-13T14:21:27;2.50;;;1.73;;
19167;SDS011;9716;53.114;18.040;2023-07-13T14:23:57;1.65;;;1.42;;
19167;SDS011;9716;53.114;18.040;2023-07-13T14:26:26;1.88;;;1.42;;
19167;SDS011;9716;53.114;18.040;2023-07-13T14:28:56;1.90;;;1.55;;
19167;SDS011;9716;53.114;18.040;2023-07-13T14:31:27;1.70;;;1.20;;
19167;SDS011;9716;53.114;18.040;2023-07-13T14:33:57;1.77;;;1.25;;
19167;SDS011;9716;53.114;18.040;2023-07-13T14:36:27;2.45;;;1.40;;
19167;SDS011;9716;53.114;18.040;2023-07-13T14:38:57;3.80;;;1.55;;
19167;SDS011;9716;53.114;18.040;2023-07-13T14:41:40;1.70;;;0.98;;
19167;SDS011;9716;53.114;18.040;2023-07-13T14:44:12;1.60;;;1.35;;
19167;SDS011;9716;53.114;18.040;2023-07-13T14:46:42;2.42;;;1.70;;
19167;SDS011;9716;53.114;18.040;2023-07-13T14:49:13;3.05;;;1.50;;
19167;SDS011;9716;53.114;18.040;2023-07-13T14:51:48;3.75;;;1.80;;
19167;SDS011;9716;53.114;18.040;2023-07-13T14:54:17;2.03;;;1.48;;
19167;SDS011;9716;53.114;18.040;2023-07-13T14:56:45;2.65;;;1.65;;
19167;SDS011;9716;53.114;18.040;2023-07-13T14:59:14;3.13;;;1.38;;
19167;SDS011;9716;53.114;18.040;2023-07-13T15:01:44;7.45;;;1.63;;
19167;SDS011;9716;53.114;18.040;2023-07-13T15:04:14;3.22;;;1.15;;
19167;SDS011;9716;53.114;18.040;2023-07-13T15:06:52;2.63;;;1.45;;
19167;SDS011;9716;53.114;18.040;2023-07-13T15:09:22;5.00;;;1.13;;
19167;SDS011;9716;53.114;18.040;2023-07-13T15:11:52;3.05;;;1.42;;
19167;SDS011;9716;53.114;18.040;2023-07-13T15:14:22;2.22;;;1.33;;
19167;SDS011;9716;53.114;18.040;2023-07-13T15:16:53;2.85;;;1.40;;
19167;SDS011;9716;53.114;18.040;2023-07-13T15:19:40;0.77;;;0.77;;
19167;SDS011;9716;53.114;18.040;2023-07-13T15:22:09;1.30;;;1.17;;